createdAt,value
2018-06-18T00:02:12.738Z,96084.13
2018-06-18T00:04:41.847Z,96085.17
2018-06-18T00:07:10.970Z,96084.34
2018-06-18T00:09:40.125Z,96087.30
2018-06-18T00:12:09.233Z,96084.13
2018-06-18T00:14:38.490Z,96087.89
2018-06-18T00:17:07.705Z,96084.13
2018-06-18T00:19:36.825Z,96078.73
2018-06-18T00:22:07.650Z,96092.26
2018-06-18T00:24:36.761Z,96086.04
2018-06-18T00:27:06.001Z,96089.55
2018-06-18T00:29:35.265Z,96085.79
2018-06-18T00:32:04.439Z,96083.90
2018-06-18T00:34:33.566Z,96077.99
2018-06-18T00:37:02.717Z,96076.36
2018-06-18T00:39:31.844Z,96084.21
2018-06-18T00:42:00.980Z,96088.48
2018-06-18T00:44:30.274Z,96099.27
2018-06-18T00:46:59.413Z,96096.58
2018-06-18T00:49:28.550Z,96096.83
2018-06-18T00:51:57.681Z,96099.53
2018-06-18T00:54:26.819Z,96093.66
2018-06-18T00:56:55.939Z,96087.75
2018-06-18T00:59:25.105Z,96097.96
2018-06-18T01:01:54.230Z,96098.22
2018-06-18T01:04:23.361Z,96096.07
2018-06-18T01:06:52.670Z,96092.90
2018-06-18T01:09:21.793Z,96092.08
2018-06-18T01:11:50.911Z,96092.60
2018-06-18T01:14:22.089Z,96087.20
2018-06-18T01:16:51.298Z,96091.81
2018-06-18T01:19:27.061Z,96092.63
2018-06-18T01:21:56.182Z,96092.91
2018-06-18T01:25:01.705Z,96091.28
2018-06-18T01:27:30.821Z,96093.98
2018-06-18T01:29:59.946Z,96095.85
2018-06-18T01:32:29.104Z,96090.73
2018-06-18T01:34:58.237Z,96093.95
2018-06-18T01:37:27.377Z,96091.22
2018-06-18T01:39:56.496Z,96088.05
2018-06-18T01:42:25.620Z,96094.78
2018-06-18T01:44:55.692Z,96088.55
2018-06-18T01:47:24.817Z,96094.19
2018-06-18T01:49:53.973Z,96089.62
2018-06-18T01:52:23.096Z,96096.09
2018-06-18T01:54:52.209Z,96091.49
2018-06-18T01:57:21.342Z,96086.64
2018-06-18T01:59:50.454Z,96094.73
2018-06-18T02:02:19.593Z,96088.80
2018-06-18T02:04:48.717Z,96093.13
2018-06-18T02:07:17.836Z,96091.25
2018-06-18T02:09:46.965Z,96090.69
2018-06-18T02:12:16.081Z,96098.77
2018-06-18T02:14:45.454Z,96088.52
2018-06-18T02:17:14.680Z,96095.27
2018-06-18T02:19:43.781Z,96093.39
2018-06-18T02:22:12.917Z,96095.02
2018-06-18T02:24:42.064Z,96096.36
2018-06-18T02:27:18.336Z,96092.33
2018-06-18T02:29:53.025Z,96094.77
2018-06-18T02:32:27.549Z,96095.56
2018-06-18T02:35:01.934Z,96095.25
2018-06-18T02:37:36.353Z,96093.91
2018-06-18T02:40:10.917Z,96096.59
2018-06-18T02:42:40.146Z,96101.47
2018-06-18T02:45:09.280Z,96103.63
2018-06-18T02:47:38.445Z,96099.59
2018-06-18T02:50:07.611Z,96098.54
2018-06-18T02:52:36.797Z,96102.34
2018-06-18T02:55:06.811Z,96096.66
2018-06-18T02:57:36.321Z,96103.92
2018-06-18T03:00:05.652Z,96101.23
2018-06-18T03:02:34.778Z,96107.40
2018-06-18T03:05:03.925Z,96107.16
2018-06-18T03:07:33.054Z,96108.52
2018-06-18T03:10:02.173Z,96108.52
2018-06-18T03:12:31.313Z,96111.73
2018-06-18T03:15:00.457Z,96111.49
2018-06-18T03:17:29.602Z,96113.91
2018-06-18T03:20:03.934Z,96121.77
2018-06-18T03:22:38.389Z,96125.00
2018-06-18T03:25:12.805Z,96124.46
2018-06-18T03:27:47.021Z,96126.34
2018-06-18T03:30:16.149Z,96129.03
2018-06-18T03:32:45.285Z,96133.60
2018-06-18T03:35:14.427Z,96137.09
2018-06-18T03:37:43.542Z,96136.30
2018-06-18T03:40:12.901Z,96135.19
2018-06-18T03:42:42.951Z,96130.91
2018-06-18T03:45:26.256Z,96137.36
2018-06-18T03:47:57.230Z,96139.77
2018-06-18T03:50:26.124Z,96143.53
2018-06-18T03:52:55.250Z,96143.53
2018-06-18T03:55:34.522Z,96147.26
2018-06-18T03:58:08.962Z,96143.20
2018-06-18T04:01:59.233Z,96140.50
2018-06-18T04:04:45.992Z,96141.80
2018-06-18T04:07:22.901Z,96136.64
2018-06-18T04:09:57.338Z,96146.33
2018-06-18T04:12:26.461Z,96147.16
2018-06-18T04:14:55.600Z,96149.59
2018-06-18T04:17:24.730Z,96146.61
2018-06-18T04:19:53.908Z,96146.89
2018-06-18T04:22:23.071Z,96146.30
2018-06-18T04:24:52.213Z,96149.00
2018-06-18T04:27:21.572Z,96141.74
2018-06-18T04:29:50.705Z,96139.86
2018-06-18T04:32:19.925Z,96147.20
2018-06-18T04:34:57.052Z,96147.41
2018-06-18T04:37:26.191Z,96151.77
2018-06-18T04:39:55.332Z,96150.16
2018-06-18T04:42:29.848Z,96162.00
2018-06-18T04:45:04.228Z,96160.91
2018-06-18T04:47:38.693Z,96164.09
2018-06-18T04:50:13.094Z,96164.09
2018-06-18T04:52:42.212Z,96164.05
2018-06-18T04:55:11.362Z,96167.22
2018-06-18T04:57:40.473Z,96159.08
2018-06-18T05:01:05.813Z,96163.66
2018-06-18T05:03:34.938Z,96167.95
2018-06-18T05:06:04.227Z,96171.77
2018-06-18T05:09:08.005Z,96176.05
2018-06-18T05:11:37.161Z,96174.80
2018-06-18T05:14:06.509Z,96187.25
2018-06-18T05:16:35.938Z,96185.89
2018-06-18T05:19:05.434Z,96187.55
2018-06-18T05:21:34.846Z,96186.72
2018-06-18T05:24:04.640Z,96182.19
2018-06-18T05:26:36.093Z,96192.18
2018-06-18T05:29:05.014Z,96191.94
2018-06-18T05:31:34.401Z,96185.69
2018-06-18T05:34:03.517Z,96186.53
2018-06-18T05:36:32.725Z,96174.81
2018-06-18T05:39:01.846Z,96178.52
2018-06-18T05:41:30.965Z,96167.73
2018-06-18T05:44:00.087Z,96175.26
2018-06-18T05:46:29.231Z,96172.86
2018-06-18T05:48:58.378Z,96174.03
2018-06-18T05:51:27.497Z,96167.69
2018-06-18T05:53:56.620Z,96168.97
2018-06-18T05:56:25.753Z,96171.78
2018-06-18T05:58:54.889Z,96170.11
2018-06-18T06:01:24.001Z,96177.09
2018-06-18T06:03:53.128Z,96172.78
2018-06-18T06:06:22.242Z,96172.27
2018-06-18T06:08:51.373Z,96168.77
2018-06-18T06:11:20.498Z,96177.67
2018-06-18T06:13:49.646Z,96182.96
2018-06-18T06:16:18.769Z,96191.86
2018-06-18T06:18:47.893Z,96188.61
2018-06-18T06:21:17.154Z,96189.75
2018-06-18T06:23:46.505Z,96190.78
2018-06-18T06:26:15.668Z,96193.29
2018-06-18T06:28:44.793Z,96194.28
2018-06-18T06:31:13.916Z,96192.25
2018-06-18T06:33:43.327Z,96193.62
2018-06-18T06:36:13.221Z,96194.81
2018-06-18T06:38:42.636Z,96193.40
2018-06-18T06:41:12.429Z,96197.44
2018-06-18T06:43:41.545Z,96194.21
2018-06-18T06:46:10.677Z,96191.36
2018-06-18T06:48:40.043Z,96196.08
2018-06-18T06:51:09.017Z,96193.83
2018-06-18T06:53:38.152Z,96199.72
2018-06-18T06:56:07.299Z,96206.09
2018-06-18T06:58:36.417Z,96200.66
2018-06-18T07:01:05.551Z,96209.22
2018-06-18T07:03:34.737Z,96205.73
2018-06-18T07:06:03.849Z,96211.48
2018-06-18T07:08:32.969Z,96220.00
2018-06-18T07:11:02.097Z,96224.47
2018-06-18T07:13:31.305Z,96221.67
2018-06-18T07:16:00.392Z,96220.98
2018-06-18T07:18:29.279Z,96222.31
2018-06-18T07:20:58.188Z,96219.70
2018-06-18T07:23:27.349Z,96224.03
2018-06-18T07:25:56.507Z,96229.97
2018-06-18T07:28:25.617Z,96232.62
2018-06-18T07:30:54.765Z,96227.85
2018-06-18T07:33:23.888Z,96241.59
2018-06-18T07:35:53.000Z,96242.80
2018-06-18T07:38:22.138Z,96234.92
2018-06-18T07:40:51.301Z,96242.69
2018-06-18T07:43:20.548Z,96233.74
2018-06-18T07:45:49.670Z,96238.84
2018-06-18T07:48:19.095Z,96232.39
2018-06-18T07:50:48.281Z,96244.17
2018-06-18T07:53:17.401Z,96238.92
2018-06-18T07:55:46.716Z,96228.67
2018-06-18T07:58:16.019Z,96230.67
2018-06-18T08:00:45.192Z,96231.63
2018-06-18T08:03:15.505Z,96228.08
2018-06-18T08:05:45.353Z,96225.94
2018-06-18T08:08:14.779Z,96232.47
2018-06-18T08:10:44.359Z,96229.48
2018-06-18T08:13:13.733Z,96229.25
2018-06-18T08:15:43.256Z,96235.06
2018-06-18T08:18:12.682Z,96229.88
2018-06-18T08:20:42.672Z,96234.70
2018-06-18T08:23:13.203Z,96234.67
2018-06-18T08:25:42.478Z,96242.91
2018-06-18T08:28:11.880Z,96236.03
2018-06-18T08:30:42.484Z,96240.24
2018-06-18T08:33:12.677Z,96241.70
2018-06-18T08:35:41.826Z,96242.52
2018-06-18T08:38:10.949Z,96242.72
2018-06-18T08:40:40.089Z,96249.53
2018-06-18T08:43:09.241Z,96249.77
2018-06-18T08:45:38.400Z,96247.84
2018-06-18T08:48:07.538Z,96251.06
2018-06-18T08:50:41.897Z,96246.48
2018-06-18T08:53:16.293Z,96247.02
2018-06-18T08:56:50.531Z,96241.50
2018-06-18T08:59:24.914Z,96239.77
2018-06-18T09:01:54.045Z,96244.92
2018-06-18T09:04:28.557Z,96245.90
2018-06-18T09:07:03.485Z,96237.94
2018-06-18T09:09:32.616Z,96235.73
2018-06-18T09:12:01.741Z,96233.33
2018-06-18T09:14:30.930Z,96226.14
2018-06-18T09:17:00.054Z,96234.10
2018-06-18T09:19:29.223Z,96229.82
2018-06-18T09:21:58.337Z,96226.34
2018-06-18T09:24:34.130Z,96223.17
2018-06-18T09:27:08.517Z,96225.88
2018-06-18T09:29:37.849Z,96226.55
2018-06-18T09:32:11.197Z,96232.02
2018-06-18T09:34:40.286Z,96232.32
2018-06-18T09:37:09.401Z,96228.95
2018-06-18T09:39:38.529Z,96234.80
2018-06-18T09:42:07.679Z,96231.53
2018-06-18T09:44:36.809Z,96233.95
2018-06-18T09:47:05.949Z,96240.85
2018-06-18T09:49:40.512Z,96230.28
2018-06-18T09:53:18.634Z,96231.58
2018-06-18T09:55:53.183Z,96233.48
2018-06-18T09:58:27.661Z,96238.13
2018-06-18T10:01:12.625Z,96236.23
2018-06-18T10:03:41.800Z,96241.05
2018-06-18T10:06:10.921Z,96240.04
2018-06-18T10:08:40.084Z,96243.53
2018-06-18T10:11:09.182Z,96239.34
2018-06-18T10:13:38.317Z,96239.95
2018-06-18T10:16:08.164Z,96240.18
2018-06-18T10:18:37.298Z,96238.98
2018-06-18T10:21:06.749Z,96239.92
2018-06-18T10:23:35.873Z,96243.17
2018-06-18T10:26:05.004Z,96241.35
2018-06-18T10:28:34.138Z,96239.73
2018-06-18T10:31:03.480Z,96234.06
2018-06-18T10:33:37.714Z,96238.42
2018-06-18T10:36:12.157Z,96236.56
2018-06-18T10:38:46.660Z,96236.37
2018-06-18T10:41:21.091Z,96245.36
2018-06-18T10:43:50.226Z,96241.28
2018-06-18T10:46:19.361Z,96240.69
2018-06-18T10:48:48.509Z,96241.05
2018-06-18T10:51:17.638Z,96241.41
2018-06-18T10:53:46.763Z,96244.19
2018-06-18T10:56:15.909Z,96243.21
2018-06-18T10:58:45.046Z,96246.24
2018-06-18T11:01:22.085Z,96246.79
2018-06-18T11:03:52.153Z,96245.16
2018-06-18T11:06:26.492Z,96243.14
2018-06-18T11:08:55.643Z,96239.13
2018-06-18T11:11:24.532Z,96239.92
2018-06-18T11:13:53.727Z,96233.98
2018-06-18T11:16:23.097Z,96233.73
2018-06-18T11:18:57.290Z,96231.66
2018-06-18T11:21:31.662Z,96231.33
2018-06-18T11:24:05.912Z,96230.25
2018-06-18T11:26:40.448Z,96222.27
2018-06-18T11:29:09.913Z,96214.35
2018-06-18T11:31:39.126Z,96206.13
2018-06-18T11:34:08.247Z,96221.16
2018-06-18T11:36:37.417Z,96220.05
2018-06-18T11:39:09.165Z,96212.89
2018-06-18T11:41:38.303Z,96215.76
2018-06-18T11:44:07.420Z,96223.11
2018-06-18T11:46:36.575Z,96221.87
2018-06-18T11:49:05.726Z,96222.73
2018-06-18T11:51:34.834Z,96215.00
2018-06-18T11:54:03.984Z,96220.27
2018-06-18T11:56:33.402Z,96215.78
2018-06-18T11:59:07.957Z,96218.99
2018-06-18T12:01:42.449Z,96217.41
2018-06-18T12:04:16.859Z,96221.87
2018-06-18T12:06:51.252Z,96218.06
2018-06-18T12:09:29.247Z,96219.84
2018-06-18T12:11:58.370Z,96217.55
2018-06-18T12:14:27.829Z,96209.00
2018-06-18T12:16:57.032Z,96210.64
2018-06-18T12:19:26.213Z,96204.70
2018-06-18T12:21:55.344Z,96204.86
2018-06-18T12:24:24.533Z,96207.58
2018-06-18T12:26:53.672Z,96209.83
2018-06-18T12:29:22.777Z,96202.31
2018-06-18T12:31:51.911Z,96203.34
2018-06-18T12:34:21.037Z,96201.22
2018-06-18T12:36:50.172Z,96204.70
2018-06-18T12:39:19.340Z,96199.69
2018-06-18T12:41:55.541Z,96202.67
2018-06-18T12:44:24.678Z,96195.44
2018-06-18T12:46:59.328Z,96191.20
2018-06-18T12:49:33.478Z,96191.40
2018-06-18T12:52:07.760Z,96196.30
2018-06-18T12:54:42.234Z,96188.95
2018-06-18T12:57:11.365Z,96193.85
2018-06-18T12:59:40.486Z,96181.87
2018-06-18T13:02:21.982Z,96184.45
2018-06-18T13:04:57.345Z,96191.26
2018-06-18T13:07:27.028Z,96192.31
2018-06-18T13:09:57.160Z,96182.37
2018-06-18T13:12:26.715Z,96185.84
2018-06-18T13:14:55.831Z,96180.71
2018-06-18T13:17:25.003Z,96182.37
2018-06-18T13:19:54.108Z,96182.01
2018-06-18T13:22:23.257Z,96179.64
2018-06-18T13:24:52.368Z,96181.16
2018-06-18T13:27:25.632Z,96178.47
2018-06-18T13:29:54.869Z,96172.05
2018-06-18T13:32:24.025Z,96174.30
2018-06-18T13:34:53.155Z,96169.48
2018-06-18T13:37:27.597Z,96175.72
2018-06-18T13:40:02.049Z,96178.24
2018-06-18T13:42:36.470Z,96177.47
2018-06-18T13:45:10.886Z,96181.95
2018-06-18T13:47:45.290Z,96183.59
2018-06-18T13:50:14.653Z,96182.52
2018-06-18T13:52:43.887Z,96174.47
2018-06-18T13:55:12.923Z,96177.52
2018-06-18T13:57:42.061Z,96175.26
2018-06-18T14:00:11.257Z,96175.62
2018-06-18T14:02:40.412Z,96180.69
2018-06-18T14:05:09.525Z,96177.44
2018-06-18T14:07:38.666Z,96176.63
2018-06-18T14:10:08.026Z,96175.87
2018-06-18T14:12:36.928Z,96171.88
2018-06-18T14:15:06.189Z,96167.41
2018-06-18T14:17:35.338Z,96164.75
2018-06-18T14:20:10.147Z,96160.77
2018-06-18T14:22:39.274Z,96164.58
2018-06-18T14:25:08.421Z,96164.26
2018-06-18T14:27:37.541Z,96156.88
2018-06-18T14:30:12.021Z,96152.63
2018-06-18T14:32:46.513Z,96150.39
2018-06-18T14:35:20.814Z,96151.75
2018-06-18T14:38:58.233Z,96153.38
2018-06-18T14:41:27.594Z,96152.98
2018-06-18T14:43:56.722Z,96147.34
2018-06-18T14:46:25.837Z,96153.38
2018-06-18T14:48:54.973Z,96149.50
2018-06-18T14:51:24.135Z,96149.73
2018-06-18T14:53:53.478Z,96151.58
2018-06-18T14:56:27.445Z,96157.41
2018-06-18T14:59:11.637Z,96155.61
2018-06-18T15:01:41.013Z,96156.74
2018-06-18T15:04:10.130Z,96155.28
2018-06-18T15:06:39.140Z,96154.43
2018-06-18T15:09:11.014Z,96157.06
2018-06-18T15:11:40.781Z,96147.50
2018-06-18T15:14:10.138Z,96149.34
2018-06-18T15:16:39.277Z,96144.41
2018-06-18T15:19:08.427Z,96149.25
2018-06-18T15:21:44.341Z,96140.79
2018-06-18T15:24:19.661Z,96141.38
2018-06-18T15:26:48.866Z,96143.80
2018-06-18T15:29:17.948Z,96134.82
2018-06-18T15:31:47.090Z,96134.17
2018-06-18T15:34:16.216Z,96138.06
2018-06-18T15:36:45.328Z,96142.70
2018-06-18T15:39:14.469Z,96139.55
2018-06-18T15:41:43.593Z,96140.81
2018-06-18T15:44:12.757Z,96134.73
2018-06-18T15:46:41.848Z,96131.67
2018-06-18T15:49:11.141Z,96132.80
2018-06-18T15:51:40.289Z,96136.42
2018-06-18T15:54:09.408Z,96132.50
2018-06-18T15:56:38.600Z,96138.78
2018-06-18T15:59:07.573Z,96148.19
2018-06-18T16:01:36.728Z,96142.19
2018-06-18T16:04:06.117Z,96148.03
2018-06-18T16:06:35.241Z,96138.48
2018-06-18T16:09:06.117Z,96142.86
2018-06-18T16:11:35.473Z,96141.66
2018-06-18T16:14:04.637Z,96143.33
2018-06-18T16:16:33.748Z,96148.80
2018-06-18T16:19:02.902Z,96149.98
2018-06-18T16:21:32.034Z,96155.38
2018-06-18T16:24:01.453Z,96151.53
2018-06-18T16:26:30.872Z,96151.47
2018-06-18T16:29:00.014Z,96148.37
2018-06-18T16:31:29.144Z,96144.41
2018-06-18T16:33:58.320Z,96148.06
2018-06-18T16:36:27.525Z,96151.88
2018-06-18T16:38:56.738Z,96157.03
2018-06-18T16:41:26.222Z,96160.68
2018-06-18T16:43:55.501Z,96155.35
2018-06-18T16:46:24.681Z,96151.53
2018-06-18T16:48:53.977Z,96155.61
2018-06-18T16:51:23.110Z,96151.94
2018-06-18T16:53:52.454Z,96150.30
2018-06-18T16:56:21.637Z,96147.95
2018-06-18T16:58:50.869Z,96146.16
2018-06-18T17:01:20.005Z,96157.91
2018-06-18T17:03:49.130Z,96165.38
2018-06-18T17:06:18.353Z,96159.50
2018-06-18T17:08:47.490Z,96166.76
2018-06-18T17:11:16.629Z,96162.16
2018-06-18T17:13:45.993Z,96156.92
2018-06-18T17:16:15.171Z,96158.02
2018-06-18T17:18:44.297Z,96159.20
2018-06-18T17:21:13.444Z,96155.28
2018-06-18T17:23:42.622Z,96166.25
2018-06-18T17:26:11.770Z,96159.74
2018-06-18T17:28:41.120Z,96159.19
2018-06-18T17:31:10.241Z,96166.19
2018-06-18T17:33:39.898Z,96168.83
2018-06-18T17:36:09.223Z,96164.98
2018-06-18T17:38:38.631Z,96160.09
2018-06-18T17:41:07.753Z,96168.44
2018-06-18T17:43:36.872Z,96160.70
2018-06-18T17:46:06.005Z,96165.48
2018-06-18T17:48:35.133Z,96161.41
2018-06-18T17:51:04.278Z,96162.45
2018-06-18T17:53:33.421Z,96168.75
2018-06-18T17:56:02.549Z,96170.47
2018-06-18T17:58:31.785Z,96164.95
2018-06-18T18:01:00.923Z,96176.92
2018-06-18T18:03:30.065Z,96171.70
2018-06-18T18:05:59.233Z,96173.97
2018-06-18T18:08:28.356Z,96180.08
2018-06-18T18:10:57.501Z,96185.11
2018-06-18T18:13:26.665Z,96180.03
2018-06-18T18:15:56.869Z,96177.67
2018-06-18T18:18:26.009Z,96179.08
2018-06-18T18:20:55.185Z,96184.52
2018-06-18T18:23:24.573Z,96183.79
2018-06-18T18:25:53.905Z,96178.36
2018-06-18T18:28:23.144Z,96180.58
2018-06-18T18:30:52.492Z,96178.98
2018-06-18T18:33:21.702Z,96173.45
2018-06-18T18:35:50.959Z,96183.35
2018-06-18T18:38:20.395Z,96177.52
2018-06-18T18:40:49.664Z,96182.50
2018-06-18T18:43:19.009Z,96185.61
2018-06-18T18:45:48.230Z,96187.09
2018-06-18T18:48:17.399Z,96195.02
2018-06-18T18:50:46.559Z,96192.66
2018-06-18T18:53:15.877Z,96192.19
2018-06-18T18:56:03.637Z,96190.59
2018-06-18T18:59:40.608Z,96195.87
2018-06-18T19:02:09.527Z,96204.33
2018-06-18T19:04:55.605Z,96196.30
2018-06-18T19:07:45.188Z,96194.52
2018-06-18T19:10:28.798Z,96205.47
2018-06-18T19:13:01.464Z,96202.80
2018-06-18T19:15:30.669Z,96207.75
2018-06-18T19:17:59.886Z,96207.28
2018-06-18T19:20:36.704Z,96209.02
2018-06-18T19:23:06.293Z,96213.16
2018-06-18T19:25:35.860Z,96214.85
2018-06-18T19:28:05.309Z,96216.34
2018-06-18T19:30:35.944Z,96223.73
2018-06-18T19:33:24.457Z,96216.47
2018-06-18T19:35:54.365Z,96223.28
2018-06-18T19:38:23.601Z,96217.38
2018-06-18T19:40:52.729Z,96228.80
2018-06-18T19:43:22.017Z,96227.75
2018-06-18T19:45:55.655Z,96228.63
2018-06-18T19:48:30.909Z,96232.98
2018-06-18T19:51:00.058Z,96231.45
2018-06-18T19:53:29.190Z,96235.30
2018-06-18T19:55:58.381Z,96234.79
2018-06-18T19:58:27.517Z,96241.63
2018-06-18T20:01:01.005Z,96244.42
2018-06-18T20:03:30.158Z,96239.84
2018-06-18T20:05:59.416Z,96243.42
2018-06-18T20:08:30.628Z,96241.85
2018-06-18T20:10:59.769Z,96245.13
2018-06-18T20:13:28.908Z,96245.97
2018-06-18T20:15:58.229Z,96249.54
2018-06-18T20:18:27.404Z,96258.29
2018-06-18T20:20:56.538Z,96258.58
2018-06-18T20:23:27.561Z,96261.88
2018-06-18T20:26:03.818Z,96259.47
2018-06-18T20:28:33.229Z,96263.03
2018-06-18T20:31:02.416Z,96267.10
2018-06-18T20:33:33.865Z,96269.58
2018-06-18T20:36:10.214Z,96273.42
2018-06-18T20:38:39.354Z,96273.70
2018-06-18T20:41:09.445Z,96274.00
2018-06-18T20:43:51.481Z,96278.59
2018-06-18T20:46:20.592Z,96287.04
2018-06-18T20:48:49.861Z,96281.67
2018-06-18T20:51:19.049Z,96282.48
2018-06-18T20:53:48.182Z,96290.66
2018-06-18T20:56:17.357Z,96288.00
2018-06-18T20:58:46.591Z,96285.31
2018-06-18T21:01:15.737Z,96290.50
2018-06-18T21:03:44.893Z,96290.78
2018-06-18T21:06:14.160Z,96288.06
2018-06-18T21:08:43.302Z,96295.39
2018-06-18T21:11:12.724Z,96293.72
2018-06-18T21:13:41.929Z,96300.48
2018-06-18T21:16:11.120Z,96296.97
2018-06-18T21:18:40.317Z,96297.47
2018-06-18T21:21:09.501Z,96301.01
2018-06-18T21:23:38.679Z,96305.61
2018-06-18T21:26:08.025Z,96297.80
2018-06-18T21:28:37.178Z,96295.59
2018-06-18T21:31:06.588Z,96306.50
2018-06-18T21:33:35.880Z,96301.94
2018-06-18T21:36:05.105Z,96303.62
2018-06-18T21:38:34.246Z,96305.81
2018-06-18T21:41:03.372Z,96307.19
2018-06-18T21:43:32.489Z,96300.70
2018-06-18T21:46:01.674Z,96304.77
2018-06-18T21:48:30.789Z,96299.66
2018-06-18T21:50:59.909Z,96303.72
2018-06-18T21:53:29.034Z,96302.39
2018-06-18T21:55:58.153Z,96303.22
2018-06-18T21:58:27.284Z,96306.41
2018-06-18T22:00:56.409Z,96306.66
2018-06-18T22:03:25.531Z,96297.19
2018-06-18T22:05:54.669Z,96295.83
2018-06-18T22:08:25.966Z,96293.42
2018-06-18T22:10:55.182Z,96295.63
2018-06-18T22:13:24.218Z,96290.24
2018-06-18T22:15:53.337Z,96296.77
2018-06-18T22:18:22.473Z,96291.91
2018-06-18T22:20:51.593Z,96293.57
2018-06-18T22:23:20.881Z,96298.21
2018-06-18T22:25:50.026Z,96305.51
2018-06-18T22:28:29.717Z,96302.55
2018-06-18T22:30:58.857Z,96298.22
2018-06-18T22:33:27.965Z,96304.45
2018-06-18T22:35:57.108Z,96305.27
2018-06-18T22:38:26.245Z,96301.17
2018-06-18T22:40:55.390Z,96310.38
2018-06-18T22:43:24.600Z,96308.20
2018-06-18T22:45:53.732Z,96309.25
2018-06-18T22:48:22.861Z,96311.09
2018-06-18T22:50:52.081Z,96307.04
2018-06-18T22:53:21.209Z,96301.86
2018-06-18T22:55:50.345Z,96299.92
2018-06-18T22:58:19.575Z,96299.90
2018-06-18T23:00:52.365Z,96305.52
2018-06-18T23:03:21.517Z,96304.67
2018-06-18T23:05:50.643Z,96298.20
2018-06-18T23:08:20.152Z,96307.45
2018-06-18T23:10:49.992Z,96310.92
2018-06-18T23:13:23.885Z,96310.36
2018-06-18T23:15:53.005Z,96304.17
2018-06-18T23:18:22.128Z,96304.69
2018-06-18T23:20:51.494Z,96295.20
2018-06-18T23:23:20.641Z,96292.81
2018-06-18T23:25:49.773Z,96296.07
2018-06-18T23:28:20.002Z,96305.30
2018-06-18T23:30:49.124Z,96305.32
2018-06-18T23:33:18.287Z,96303.75
2018-06-18T23:35:47.428Z,96302.92
2018-06-18T23:38:16.561Z,96304.28
2018-06-18T23:40:45.680Z,96306.21
2018-06-18T23:43:14.917Z,96303.23
2018-06-18T23:45:44.033Z,96305.16
2018-06-18T23:48:13.157Z,96308.39
2018-06-18T23:50:42.278Z,96313.80
2018-06-18T23:53:11.413Z,96305.72
2018-06-18T23:55:40.530Z,96307.06
2018-06-18T23:58:09.670Z,96309.49
